Time;durP1;ratioP1;P1;durP2;ratioP2;P2;SDS_P1;SDS_P2;PMS_P1;PMS_P2;Temp;Humidity;BMP_temperature;BMP_pressure;BME280_temperature;BME280_humidity;BME280_pressure;Samples;Min_cycle;Max_cycle;Signal;HPM_P1;HPM_P2
2022/01/01 00:01:19;;;;;;;5.90;2.90;;;;;;;9.37;70.03;97195.50;5031083;28;20045;-74
2022/01/01 00:03:45;;;;;;;6.47;3.03;;;;;;;9.36;70.34;97196.59;5032787;28;20049;-73
2022/01/01 00:06:12;;;;;;;6.32;3.33;;;;;;;9.35;70.53;97194.19;5031693;28;20046;-74
2022/01/01 00:08:38;;;;;;;5.47;3.38;;;;;;;9.35;70.30;97194.19;5032634;28;20057;-74
2022/01/01 00:11:05;;;;;;;5.32;3.47;;;;;;;9.35;70.26;97199.63;5031852;28;20045;-73
2022/01/01 00:13:31;;;;;;;6.18;3.75;;;;;;;9.36;70.43;97195.78;5051841;28;20052;-74
2022/01/01 00:15:58;;;;;;;6.60;3.85;;;;;;;9.36;70.25;97201.22;5052302;28;20053;-73
2022/01/01 00:18:25;;;;;;;9.20;3.92;;;;;;;9.35;70.22;97194.97;5051325;28;20048;-73
2022/01/01 00:20:52;;;;;;;7.03;4.07;;;;;;;9.31;70.58;97188.50;5052538;28;20049;-73
2022/01/01 00:23:18;;;;;;;7.53;3.95;;;;;;;9.31;70.69;97188.50;5050419;28;20037;-73
2022/01/01 00:25:45;;;;;;;7.90;4.00;;;;;;;9.29;70.76;97190.72;5052494;28;20048;-73
2022/01/01 00:28:12;;;;;;;6.30;3.70;;;;;;;9.28;70.55;97189.06;5051021;28;20056;-73
2022/01/01 00:30:38;;;;;;;6.93;4.55;;;;;;;9.27;70.63;97184.72;5052299;28;20132;-73
2022/01/01 00:33:06;;;;;;;7.38;4.93;;;;;;;9.27;71.04;97186.63;5051082;28;20041;-73
2022/01/01 00:35:34;;;;;;;9.95;5.28;;;;;;;9.25;70.95;97200.53;5051835;28;20052;-73
2022/01/01 00:38:01;;;;;;;8.35;5.15;;;;;;;9.24;71.21;97192.66;5051673;28;20060;-73
2022/01/01 00:40:27;;;;;;;8.85;5.28;;;;;;;9.18;71.42;97193.81;5051208;28;20048;-74
2022/01/01 00:42:53;;;;;;;9.73;5.72;;;;;;;9.17;71.25;97201.16;5038511;28;20052;-74
2022/01/01 00:45:21;;;;;;;10.90;5.68;;;;;;;9.13;71.56;97203.66;5029696;28;20049;-73
2022/01/01 00:47:48;;;;;;;10.73;6.20;;;;;;;9.13;71.94;97202.81;5032200;28;20119;-73
2022/01/01 00:50:14;;;;;;;10.23;5.65;;;;;;;9.11;72.01;97205.03;5030694;28;20053;-73
2022/01/01 00:52:44;;;;;;;9.95;6.53;;;;;;;9.13;72.08;97208.25;5032035;28;20069;-73
2022/01/01 00:55:11;;;;;;;11.38;6.28;;;;;;;9.12;71.74;97212.88;5030684;28;20041;-73
2022/01/01 00:57:38;;;;;;;9.40;5.65;;;;;;;9.17;72.06;97219.38;5031638;28;20507;-74
2022/01/01 01:00:06;;;;;;;9.00;5.30;;;;;;;9.14;72.31;97216.13;5030507;28;20057;-74
2022/01/01 01:02:33;;;;;;;9.25;5.38;;;;;;;9.17;71.59;97219.38;5031292;28;20049;-73
2022/01/01 01:05:00;;;;;;;7.57;4.80;;;;;;;9.15;71.89;97223.19;5031463;28;20049;-73
2022/01/01 01:07:26;;;;;;;16.90;5.03;;;;;;;9.13;71.68;97230.81;5030132;28;20045;-73
2022/01/01 01:09:54;;;;;;;7.88;4.80;;;;;;;9.14;71.58;97237.88;5031791;28;20056;-73
2022/01/01 01:12:25;;;;;;;9.80;4.55;;;;;;;9.13;71.56;97236.25;5032072;28;20045;-74
2022/01/01 01:14:52;;;;;;;7.53;3.80;;;;;;;9.12;71.95;97248.19;5031728;28;20060;-73
2022/01/01 01:17:19;;;;;;;8.05;4.13;;;;;;;9.13;71.61;97244.41;5030313;28;20132;-74
2022/01/01 01:19:46;;;;;;;6.75;4.00;;;;;;;9.12;71.65;97250.91;5031159;28;20053;-73
2022/01/01 01:22:12;;;;;;;8.00;4.28;;;;;;;9.08;72.16;97249.06;5030325;28;20049;-73
2022/01/01 01:24:39;;;;;;;6.03;3.67;;;;;;;9.08;72.23;97254.47;5030765;28;20049;-74
2022/01/01 01:27:07;;;;;;;7.93;3.92;;;;;;;9.10;72.18;97252.31;5030685;28;20072;-73
2022/01/01 01:29:37;;;;;;;8.00;4.32;;;;;;;9.08;72.14;97255.31;5030235;28;20049;-73
2022/01/01 01:32:04;;;;;;;7.07;3.67;;;;;;;9.06;72.12;97262.94;5030981;28;20049;-74
2022/01/01 01:34:31;;;;;;;5.75;3.80;;;;;;;9.04;72.36;97267.03;5030046;28;20404;-73
2022/01/01 01:36:57;;;;;;;6.05;3.63;;;;;;;9.04;72.04;97272.47;5031303;28;20452;-74
2022/01/01 01:39:24;;;;;;;6.57;3.53;;;;;;;9.04;72.14;97276.00;5029876;28;20048;-73
2022/01/01 01:41:52;;;;;;;8.20;4.03;;;;;;;9.06;72.39;97276.53;5033033;28;20054;-73
2022/01/01 01:44:30;;;;;;;6.85;3.55;;;;;;;9.11;72.11;97281.91;5029905;28;20484;-73
2022/01/01 01:46:59;;;;;;;6.30;3.38;;;;;;;9.14;72.01;97275.09;5030510;28;20072;-73
2022/01/01 01:49:25;;;;;;;5.72;3.20;;;;;;;9.21;71.60;97282.91;5030374;28;20041;-73
2022/01/01 01:51:52;;;;;;;6.18;3.47;;;;;;;9.24;71.79;97282.31;5030095;28;20045;-73
2022/01/01 01:54:19;;;;;;;6.38;3.90;;;;;;;9.26;71.67;97274.72;5030723;28;20057;-73
2022/01/01 01:56:46;;;;;;;7.45;3.35;;;;;;;9.30;71.62;97273.06;5029952;28;20041;-73
2022/01/01 01:59:14;;;;;;;6.18;3.65;;;;;;;9.34;71.43;97274.06;5030632;28;20049;-74
2022/01/01 02:01:42;;;;;;;6.90;3.70;;;;;;;9.36;71.21;97280.06;5029708;28;20042;-73
2022/01/01 02:04:09;;;;;;;5.97;3.45;;;;;;;9.38;71.39;97267.78;5030120;28;20045;-74
2022/01/01 02:06:36;;;;;;;7.35;3.15;;;;;;;9.40;71.16;97267.50;5030364;28;20056;-74
2022/01/01 02:09:03;;;;;;;6.82;3.40;;;;;;;9.39;71.14;97268.59;5029968;28;20048;-74
2022/01/01 02:11:30;;;;;;;6.40;3.50;;;;;;;9.41;70.93;97272.66;5034002;28;20064;-73
2022/01/01 02:14:09;;;;;;;5.57;3.30;;;;;;;9.41;71.08;97258.25;5049974;28;20049;-73
2022/01/01 02:16:51;;;;;;;5.63;3.42;;;;;;;9.43;71.02;97260.69;5050707;28;20041;-73
2022/01/01 02:19:23;;;;;;;8.97;4.20;;;;;;;9.50;70.73;97272.84;5049218;28;20397;-73
2022/01/01 02:21:51;;;;;;;6.45;3.45;;;;;;;9.54;70.71;97268.41;5050422;28;20056;-74
2022/01/01 02:24:17;;;;;;;5.75;3.50;;;;;;;9.56;70.38;97268.97;5049547;28;20060;-73
2022/01/01 02:26:44;;;;;;;7.88;3.72;;;;;;;9.58;70.30;97269.47;5050622;28;20056;-73
2022/01/01 02:29:11;;;;;;;7.75;3.80;;;;;;;9.61;70.49;97268.91;5050266;28;20045;-74
2022/01/01 02:31:37;;;;;;;5.78;3.65;;;;;;;9.63;70.22;97266.69;5049273;28;20068;-73
2022/01/01 02:34:06;;;;;;;4.63;3.03;;;;;;;9.67;70.09;97262.31;5050122;28;20060;-73
2022/01/01 02:36:34;;;;;;;7.45;3.40;;;;;;;9.66;69.93;97270.75;5049610;28;20488;-73
2022/01/01 02:39:09;;;;;;;5.53;3.28;;;;;;;9.66;69.85;97266.13;5050541;28;20053;-73
2022/01/01 02:41:36;;;;;;;8.82;3.75;;;;;;;9.71;70.18;97272.59;5046915;28;20049;-74
2022/01/01 02:44:03;;;;;;;5.75;3.80;;;;;;;9.75;69.98;97279.06;5030034;28;20057;-74
2022/01/01 02:46:29;;;;;;;5.25;3.28;;;;;;;9.73;69.78;97276.66;5029959;28;20054;-73
2022/01/01 02:48:55;;;;;;;5.68;3.50;;;;;;;9.76;70.12;97275.25;5030195;28;20115;-74
2022/01/01 02:51:22;;;;;;;5.93;3.25;;;;;;;9.80;70.07;97276.28;5029565;28;20060;-74
2022/01/01 02:53:48;;;;;;;6.05;3.45;;;;;;;9.82;69.94;97279.56;5029544;28;20052;-74
2022/01/01 02:56:16;;;;;;;5.75;3.85;;;;;;;9.84;69.64;97272.72;5029861;28;20049;-74
2022/01/01 02:58:43;;;;;;;6.45;3.55;;;;;;;9.82;69.63;97269.47;5030005;28;20045;-74
2022/01/01 03:01:10;;;;;;;6.60;3.38;;;;;;;9.82;69.58;97271.41;5029956;28;20049;-74
2022/01/01 03:03:37;;;;;;;6.53;3.80;;;;;;;9.77;69.86;97272.25;5029391;28;20042;-73
2022/01/01 03:06:03;;;;;;;7.32;3.10;;;;;;;9.75;70.16;97274.44;5030033;28;20041;-73
2022/01/01 03:08:30;;;;;;;5.63;3.58;;;;;;;9.75;70.18;97284.50;5031096;28;20654;-73
2022/01/01 03:10:57;;;;;;;7.13;3.45;;;;;;;9.75;70.33;97287.22;5033629;28;20045;-74
2022/01/01 03:13:25;;;;;;;5.90;3.30;;;;;;;9.76;70.39;97280.69;5034674;28;20046;-73
2022/01/01 03:15:51;;;;;;;6.00;3.25;;;;;;;9.76;70.52;97295.13;5033250;28;20049;-74
2022/01/01 03:18:17;;;;;;;5.75;3.40;;;;;;;9.78;70.58;97292.09;5032993;28;20053;-74
2022/01/01 03:20:45;;;;;;;7.03;3.38;;;;;;;9.80;70.34;97292.63;5032913;28;20049;-73
2022/01/01 03:23:11;;;;;;;5.35;3.42;;;;;;;9.80;70.23;97292.63;5033230;28;20068;-74
2022/01/01 03:25:38;;;;;;;4.75;3.10;;;;;;;9.80;70.21;97296.16;5032820;28;20042;-73
2022/01/01 03:28:05;;;;;;;5.60;3.72;;;;;;;9.77;70.22;97301.38;5033461;28;20463;-74
2022/01/01 03:30:34;;;;;;;4.97;2.97;;;;;;;9.78;70.23;97300.28;5032717;28;20057;-74
2022/01/01 03:33:00;;;;;;;6.18;3.67;;;;;;;9.80;70.03;97308.94;5033306;28;20053;-74
2022/01/01 03:35:27;;;;;;;7.03;3.65;;;;;;;9.82;70.43;97317.63;5032302;28;20049;-74
2022/01/01 03:37:53;;;;;;;6.47;3.45;;;;;;;9.82;69.75;97317.63;5032907;28;20455;-74
2022/01/01 03:40:20;;;;;;;5.85;3.47;;;;;;;9.76;69.78;97313.31;5033004;28;20137;-74
2022/01/01 03:42:46;;;;;;;7.10;3.47;;;;;;;9.67;70.29;97319.41;5032619;28;20056;-74
2022/01/01 03:45:13;;;;;;;5.65;3.40;;;;;;;9.65;70.45;97324.31;5032680;28;20056;-74
2022/01/01 03:47:41;;;;;;;6.20;3.70;;;;;;;9.66;70.29;97331.41;5031667;28;20549;-73
2022/01/01 03:50:08;;;;;;;6.85;3.80;;;;;;;9.70;70.44;97328.09;5032962;28;20057;-74
2022/01/01 03:52:35;;;;;;;6.15;3.70;;;;;;;9.67;70.29;97327.56;5032080;28;20041;-74
2022/01/01 03:55:02;;;;;;;7.03;3.67;;;;;;;9.66;70.41;97330.59;5033193;28;20441;-74
2022/01/01 03:57:28;;;;;;;8.05;3.83;;;;;;;9.67;70.20;97330.28;5031924;28;20066;-74
2022/01/01 03:59:54;;;;;;;5.10;3.42;;;;;;;9.66;70.33;97336.84;5032577;28;20053;-74
2022/01/01 04:02:21;;;;;;;5.72;3.30;;;;;;;9.65;70.68;97331.66;5029474;28;20491;-74
2022/01/01 04:04:49;;;;;;;6.18;3.40;;;;;;;9.64;70.65;97328.13;5012723;28;20530;-73
2022/01/01 04:07:15;;;;;;;6.10;3.63;;;;;;;9.62;70.99;97330.34;5012361;28;20050;-74
2022/01/01 04:09:42;;;;;;;5.82;3.63;;;;;;;9.56;71.04;97331.50;5014945;28;20045;-74
2022/01/01 04:12:08;;;;;;;7.20;3.83;;;;;;;9.57;71.59;97333.13;5031926;28;20038;-74
2022/01/01 04:14:35;;;;;;;5.78;3.40;;;;;;;9.62;70.98;97338.50;5031776;28;20124;-74
2022/01/01 04:17:02;;;;;;;8.23;3.92;;;;;;;9.64;71.08;97332.78;5032808;28;20046;-74
2022/01/01 04:19:39;;;;;;;6.30;3.88;;;;;;;9.65;71.01;97329.75;5031472;28;20111;-74
2022/01/01 04:22:08;;;;;;;5.40;3.70;;;;;;;9.70;70.88;97338.97;5032076;28;20045;-74
2022/01/01 04:24:34;;;;;;;6.78;4.07;;;;;;;9.68;70.58;97334.63;5031811;28;20476;-75
2022/01/01 04:27:01;;;;;;;8.68;3.92;;;;;;;9.66;70.34;97331.41;5032047;28;20053;-74
2022/01/01 04:29:27;;;;;;;6.93;3.83;;;;;;;9.66;70.30;97331.41;5031889;28;20070;-73
2022/01/01 04:31:55;;;;;;;5.78;3.60;;;;;;;9.70;70.31;97325.38;5031546;28;20056;-74
2022/01/01 04:34:22;;;;;;;7.13;3.85;;;;;;;9.66;70.20;97323.25;5031709;28;20052;-74
2022/01/01 04:36:53;;;;;;;6.07;3.85;;;;;;;9.64;70.29;97328.13;5031231;28;20057;-74
2022/01/01 04:39:20;;;;;;;6.80;3.92;;;;;;;9.58;70.75;97329.28;5032032;28;20443;-74
2022/01/01 04:41:47;;;;;;;6.78;4.00;;;;;;;9.55;70.98;97327.16;5011492;28;20049;-74
2022/01/01 04:44:13;;;;;;;7.45;3.42;;;;;;;9.56;71.30;97317.91;5011983;28;20061;-75
2022/01/01 04:46:40;;;;;;;6.85;4.07;;;;;;;9.58;71.51;97329.28;5012302;28;20045;-74
2022/01/01 04:49:06;;;;;;;6.85;3.65;;;;;;;9.59;71.42;97330.09;5011541;28;20056;-74
2022/01/01 04:51:33;;;;;;;6.85;4.00;;;;;;;9.63;71.82;97334.69;5011896;28;20437;-74
2022/01/01 04:54:00;;;;;;;7.82;3.90;;;;;;;9.62;72.10;97335.78;5011552;28;20046;-74
2022/01/01 04:56:29;;;;;;;6.07;3.60;;;;;;;9.63;72.08;97331.97;5011595;28;20046;-74
2022/01/01 04:58:55;;;;;;;7.45;3.92;;;;;;;9.67;72.28;97338.47;5011289;28;20050;-74
2022/01/01 05:01:22;;;;;;;7.85;4.43;;;;;;;9.71;72.45;97343.31;5011733;28;20062;-74
2022/01/01 05:03:49;;;;;;;5.85;4.28;;;;;;;9.73;71.61;97338.41;5011162;28;20046;-74
2022/01/01 05:06:15;;;;;;;6.00;4.07;;;;;;;9.73;71.33;97341.94;5011726;28;20054;-74
2022/01/01 05:08:42;;;;;;;8.52;3.90;;;;;;;9.79;71.17;97345.41;5011181;28;20056;-74
2022/01/01 05:11:08;;;;;;;7.05;4.15;;;;;;;9.79;70.43;97350.84;5014793;28;20054;-74
2022/01/01 05:13:36;;;;;;;6.00;3.80;;;;;;;9.75;70.26;97355.22;5011490;28;20045;-74
2022/01/01 05:16:03;;;;;;;6.97;4.03;;;;;;;9.73;70.17;97352.00;5011708;28;20050;-74
2022/01/01 05:18:29;;;;;;;6.95;4.10;;;;;;;9.66;69.90;97347.72;5012055;28;20045;-74
2022/01/01 05:20:56;;;;;;;7.60;3.97;;;;;;;9.62;70.12;97345.84;5011728;28;20042;-74
2022/01/01 05:23:22;;;;;;;7.20;4.00;;;;;;;9.57;70.66;97352.16;5011527;28;20062;-74
2022/01/01 05:25:49;;;;;;;7.30;4.00;;;;;;;9.55;70.72;97338.03;5010701;28;20053;-74
2022/01/01 05:28:15;;;;;;;6.25;3.75;;;;;;;9.52;70.68;97341.31;5011217;28;20052;-74
2022/01/01 05:30:43;;;;;;;6.63;3.80;;;;;;;9.53;70.36;97347.56;5023945;28;20056;-74
2022/01/01 05:33:09;;;;;;;7.15;3.53;;;;;;;9.53;70.58;97342.13;5030988;28;20046;-74
2022/01/01 05:35:36;;;;;;;8.35;4.00;;;;;;;9.55;70.56;97335.31;5030598;28;20403;-74
2022/01/01 05:38:03;;;;;;;6.70;3.63;;;;;;;9.57;70.79;97349.44;5030694;28;20454;-73
2022/01/01 05:40:30;;;;;;;6.43;4.10;;;;;;;9.59;71.00;97340.97;5034233;28;20053;-74
2022/01/01 05:42:56;;;;;;;8.43;4.15;;;;;;;9.60;70.91;97342.59;5030699;28;20678;-74
2022/01/01 05:45:23;;;;;;;5.95;4.00;;;;;;;9.59;70.63;97336.34;5030318;28;20048;-74
2022/01/01 05:47:51;;;;;;;7.10;4.53;;;;;;;9.59;70.58;97336.34;5030053;28;20045;-74
2022/01/01 05:50:19;;;;;;;8.80;4.90;;;;;;;9.59;70.85;97341.78;5030580;28;20053;-74
2022/01/01 05:52:46;;;;;;;8.32;4.32;;;;;;;9.60;70.51;97342.59;5029897;28;20503;-74
2022/01/01 05:55:12;;;;;;;7.85;4.68;;;;;;;9.60;70.93;97342.59;5030858;28;20444;-74
2022/01/01 05:57:39;;;;;;;6.75;4.30;;;;;;;9.60;70.88;97337.97;5030178;28;20404;-74
2022/01/01 06:00:07;;;;;;;8.45;5.00;;;;;;;9.61;71.59;97344.25;5030268;28;20049;-74
2022/01/01 06:02:39;;;;;;;10.07;4.70;;;;;;;9.57;71.41;97349.44;5030164;28;20069;-74
2022/01/01 06:05:07;;;;;;;8.50;4.90;;;;;;;9.57;71.54;97340.47;5029996;28;20076;-74
2022/01/01 06:07:34;;;;;;;9.13;5.13;;;;;;;9.56;71.58;97333.41;5030775;28;20427;-75
2022/01/01 06:10:01;;;;;;;10.18;5.00;;;;;;;9.58;71.72;97337.44;5033583;28;20526;-74
2022/01/01 06:12:27;;;;;;;9.43;4.70;;;;;;;9.59;71.37;97335.53;5030499;28;20064;-74
2022/01/01 06:14:54;;;;;;;6.80;4.47;;;;;;;9.58;71.56;97344.81;5030031;28;20054;-74
2022/01/01 06:17:20;;;;;;;9.32;4.95;;;;;;;9.57;71.44;97338.56;5030691;28;20053;-74
2022/01/01 06:19:47;;;;;;;8.40;5.00;;;;;;;9.59;71.45;97339.06;5029908;28;20097;-74
2022/01/01 06:22:15;;;;;;;7.78;4.53;;;;;;;9.56;71.05;97347.00;5030677;28;20049;-74
2022/01/01 06:24:41;;;;;;;7.60;4.72;;;;;;;9.53;70.84;97331.25;5029781;28;20053;-74
2022/01/01 06:27:07;;;;;;;9.38;4.40;;;;;;;9.48;71.09;97328.59;5029923;28;20041;-74
2022/01/01 06:29:34;;;;;;;6.70;4.43;;;;;;;9.41;71.08;97334.38;5030169;28;20534;-74
2022/01/01 06:32:00;;;;;;;7.30;4.40;;;;;;;9.32;71.44;97333.34;5030163;28;20054;-74
2022/01/01 06:34:27;;;;;;;10.32;4.50;;;;;;;9.20;71.56;97328.31;5029915;28;20041;-74
2022/01/01 06:36:53;;;;;;;8.70;5.03;;;;;;;9.08;71.85;97325.13;5030038;28;20052;-74
2022/01/01 06:39:21;;;;;;;8.85;5.30;;;;;;;8.98;72.07;97334.19;5030029;28;20551;-74
2022/01/01 06:41:47;;;;;;;8.15;4.72;;;;;;;8.85;72.13;97327.50;5030162;28;20042;-74
2022/01/01 06:44:14;;;;;;;11.25;5.03;;;;;;;8.73;73.23;97328.94;5033311;28;20056;-74
2022/01/01 06:46:40;;;;;;;9.60;4.93;;;;;;;8.62;73.68;97323.59;5033749;28;20038;-74
2022/01/01 06:49:07;;;;;;;7.85;4.32;;;;;;;8.53;73.65;97330.69;5033799;28;20053;-74
2022/01/01 06:51:33;;;;;;;8.90;5.15;;;;;;;8.44;74.15;97326.94;5033652;28;20052;-73
2022/01/01 06:54:00;;;;;;;8.70;4.90;;;;;;;8.35;74.72;97328.56;5034214;28;20048;-74
2022/01/01 06:56:27;;;;;;;9.82;5.38;;;;;;;8.26;75.31;97338.41;5033777;28;20069;-74
2022/01/01 06:58:54;;;;;;;7.35;4.93;;;;;;;8.16;75.44;97341.19;5034323;28;20046;-76
2022/01/01 07:01:20;;;;;;;10.70;5.25;;;;;;;8.08;75.37;97334.41;5033689;28;20049;-74
2022/01/01 07:03:47;;;;;;;10.82;4.53;;;;;;;8.04;75.65;97334.16;5034330;28;20042;-74
2022/01/01 07:06:13;;;;;;;10.48;5.25;;;;;;;7.98;76.33;97335.25;5033813;28;20512;-73
2022/01/01 07:08:40;;;;;;;7.00;4.70;;;;;;;7.85;76.45;97333.97;5034081;28;20033;-74
2022/01/01 07:11:07;;;;;;;9.15;5.00;;;;;;;7.80;76.97;97335.88;5037119;28;20103;-77
2022/01/01 07:13:34;;;;;;;11.43;5.35;;;;;;;7.74;77.24;97339.69;5034278;28;20053;-74
2022/01/01 07:16:01;;;;;;;8.75;5.20;;;;;;;7.66;77.35;97349.19;5034258;28;20045;-74
2022/01/01 07:18:27;;;;;;;9.38;4.70;;;;;;;7.59;77.75;97338.63;5033521;28;20447;-73
2022/01/01 07:20:54;;;;;;;8.93;5.00;;;;;;;7.57;77.74;97340.81;5033934;28;20471;-74
2022/01/01 07:23:20;;;;;;;8.68;5.28;;;;;;;7.57;77.71;97348.16;5033435;28;20049;-74
2022/01/01 07:25:47;;;;;;;8.40;4.90;;;;;;;7.57;77.26;97340.00;5033848;28;20054;-74
2022/01/01 07:28:16;;;;;;;8.95;5.13;;;;;;;7.56;77.48;97344.59;5033074;28;20053;-74
2022/01/01 07:30:44;;;;;;;9.05;4.78;;;;;;;7.54;77.38;97346.78;5033825;28;20057;-73
2022/01/01 07:33:13;;;;;;;10.07;4.95;;;;;;;7.53;77.33;97347.88;5033180;28;20069;-73
2022/01/01 07:35:40;;;;;;;7.93;5.10;;;;;;;7.52;77.46;97343.53;5033622;28;20046;-73
2022/01/01 07:38:07;;;;;;;8.85;5.68;;;;;;;7.54;77.22;97340.56;5033324;28;20083;-73
2022/01/01 07:40:35;;;;;;;7.63;4.85;;;;;;;7.57;76.94;97351.66;5036934;28;20585;-74
2022/01/01 07:43:01;;;;;;;8.82;4.82;;;;;;;7.55;76.78;97348.41;5033475;28;20480;-74
2022/01/01 07:45:28;;;;;;;7.05;4.80;;;;;;;7.55;77.13;97348.41;5033448;28;20044;-74
2022/01/01 07:47:56;;;;;;;9.23;4.10;;;;;;;7.57;76.79;97351.66;5033413;28;20045;-73
2022/01/01 07:50:22;;;;;;;7.93;4.90;;;;;;;7.58;76.95;97349.75;5032761;28;20054;-73
2022/01/01 07:52:49;;;;;;;7.45;4.40;;;;;;;7.58;76.93;97353.28;5033256;28;20045;-73
2022/01/01 07:55:15;;;;;;;6.60;3.95;;;;;;;7.64;76.27;97351.38;5032538;28;20053;-73
2022/01/01 07:57:41;;;;;;;6.60;3.83;;;;;;;7.66;76.43;97351.09;5033360;28;20037;-74
2022/01/01 08:00:09;;;;;;;6.93;4.03;;;;;;;7.64;76.52;97348.66;5032636;28;20516;-73
2022/01/01 08:02:40;;;;;;;7.45;4.25;;;;;;;7.68;76.56;97352.44;5033094;28;20041;-74
2022/01/01 08:05:09;;;;;;;8.80;4.13;;;;;;;7.75;76.37;97354.88;5032643;28;20449;-74
2022/01/01 08:07:36;;;;;;;6.70;3.83;;;;;;;7.77;76.49;97355.41;5033017;28;20052;-76
2022/01/01 08:10:03;;;;;;;7.88;4.22;;;;;;;7.84;76.30;97350.50;5036008;28;20052;-73
2022/01/01 08:12:29;;;;;;;7.10;3.97;;;;;;;8.01;76.59;97361.03;5032992;28;20049;-75
2022/01/01 08:14:56;;;;;;;7.20;3.88;;;;;;;8.22;76.10;97353.63;5033033;28;20584;-75
2022/01/01 08:17:24;;;;;;;7.22;3.38;;;;;;;8.54;75.25;97364.06;5032243;28;20163;-75
2022/01/01 08:19:50;;;;;;;6.47;3.53;;;;;;;8.91;74.50;97362.75;5032783;28;20053;-75
2022/01/01 08:22:18;;;;;;;6.18;3.20;;;;;;;9.27;72.26;97361.38;5032302;28;20057;-75
2022/01/01 08:24:46;;;;;;;5.65;3.20;;;;;;;9.51;71.19;97371.53;5032761;28;20049;-75
2022/01/01 08:27:12;;;;;;;6.15;3.10;;;;;;;9.59;69.81;97373.63;5032021;28;20055;-75
2022/01/01 08:29:39;;;;;;;5.13;3.17;;;;;;;9.62;68.79;97373.06;5032571;28;20050;-74
2022/01/01 08:32:06;;;;;;;5.78;3.20;;;;;;;9.61;68.69;97368.72;5032043;28;20045;-75
2022/01/01 08:34:33;;;;;;;6.22;3.00;;;;;;;9.57;66.87;97367.66;5032465;28;20053;-72
2022/01/01 08:36:59;;;;;;;6.07;3.00;;;;;;;9.57;66.50;97371.19;5032409;28;20074;-75
2022/01/01 08:39:27;;;;;;;5.63;2.97;;;;;;;9.53;66.70;97386.44;5032531;28;20045;-75
2022/01/01 08:41:54;;;;;;;5.20;2.80;;;;;;;9.55;66.67;97384.28;5034629;28;20041;-75
2022/01/01 08:44:20;;;;;;;5.05;2.85;;;;;;;9.58;67.42;97378.25;5032026;28;20080;-75
2022/01/01 08:46:47;;;;;;;4.72;3.00;;;;;;;9.54;66.73;97379.91;5032086;28;20041;-73
2022/01/01 08:49:13;;;;;;;6.22;3.20;;;;;;;9.50;67.19;97376.16;5031771;28;20057;-73
2022/01/01 08:51:42;;;;;;;6.60;3.80;;;;;;;9.42;66.63;97371.31;5032385;28;20519;-74
2022/01/01 08:54:10;;;;;;;5.13;2.78;;;;;;;9.39;67.15;97374.59;5031724;28;20441;-73
2022/01/01 08:56:37;;;;;;;4.47;2.70;;;;;;;9.43;67.41;97380.28;5032212;28;20537;-74
2022/01/01 08:59:04;;;;;;;5.18;2.80;;;;;;;9.38;67.43;97383.84;5031548;28;20077;-75
2022/01/01 09:01:31;;;;;;;4.93;2.80;;;;;;;9.27;67.13;97371.47;5031788;28;20041;-73
2022/01/01 09:03:57;;;;;;;7.10;3.30;;;;;;;9.22;68.18;97371.50;5031951;28;20539;-73
2022/01/01 09:06:24;;;;;;;5.13;2.88;;;;;;;9.17;67.66;97363.38;5030793;28;20057;-74
2022/01/01 09:08:50;;;;;;;5.35;3.00;;;;;;;9.12;67.90;97359.59;5031849;28;20052;-73
2022/01/01 09:11:17;;;;;;;6.10;3.40;;;;;;;9.05;68.68;97361.84;5034884;28;20443;-73
2022/01/01 09:13:45;;;;;;;5.20;3.42;;;;;;;9.06;68.53;97354.50;5031763;28;20053;-73
2022/01/01 09:16:15;;;;;;;4.90;3.00;;;;;;;9.04;68.73;97354.78;5031081;28;20045;-73
2022/01/01 09:18:43;;;;;;;6.30;3.20;;;;;;;9.03;68.79;97344.19;5031670;28;20052;-73
2022/01/01 09:21:10;;;;;;;4.93;2.80;;;;;;;9.03;68.46;97349.63;5031190;28;20049;-74
2022/01/01 09:23:37;;;;;;;6.70;2.97;;;;;;;9.07;68.42;97356.13;5031567;28;20037;-73
2022/01/01 09:26:03;;;;;;;5.45;2.90;;;;;;;9.13;67.52;97353.09;5031054;28;20049;-73
2022/01/01 09:28:30;;;;;;;4.95;3.13;;;;;;;9.27;68.50;97361.38;5031289;28;20048;-73
2022/01/01 09:30:59;;;;;;;4.88;2.90;;;;;;;9.33;68.22;97370.31;5031379;28;20046;-74
2022/01/01 09:33:29;;;;;;;4.78;2.85;;;;;;;9.44;67.58;97379.19;5031087;28;20049;-74
2022/01/01 09:35:55;;;;;;;5.45;3.00;;;;;;;9.54;67.91;97379.91;5031479;28;20053;-73
2022/01/01 09:38:22;;;;;;;5.05;3.05;;;;;;;9.68;68.15;97394.47;5030897;28;20057;-72
2022/01/01 09:40:49;;;;;;;5.10;3.10;;;;;;;9.83;68.29;97400.88;5034576;28;20053;-73
2022/01/01 09:43:16;;;;;;;6.47;2.83;;;;;;;10.01;66.67;97396.59;5031022;28;20408;-73
2022/01/01 09:45:43;;;;;;;5.22;3.00;;;;;;;10.20;67.84;97400.19;5031289;28;20068;-73
2022/01/01 09:48:11;;;;;;;8.93;3.25;;;;;;;10.41;66.17;97396.16;5030955;28;20053;-73
2022/01/01 09:50:39;;;;;;;4.10;2.90;;;;;;;10.66;64.27;97386.84;5031432;28;20053;-73
2022/01/01 09:53:06;;;;;;;6.13;3.30;;;;;;;10.92;64.53;97391.94;5030873;28;20045;-73
2022/01/01 09:55:33;;;;;;;5.00;3.00;;;;;;;11.19;62.94;97388.53;5031433;28;20049;-73
2022/01/01 09:57:59;;;;;;;4.90;3.30;;;;;;;11.40;61.56;97383.56;5031183;28;20054;-73
2022/01/01 10:00:25;;;;;;;6.63;3.22;;;;;;;11.66;61.58;97370.31;5030508;28;20486;-73
2022/01/01 10:02:52;;;;;;;5.90;3.00;;;;;;;11.98;60.04;97374.94;5031250;28;20531;-73
2022/01/01 10:05:20;;;;;;;4.07;2.33;;;;;;;12.15;59.69;97380.59;5030670;28;20050;-73
2022/01/01 10:07:46;;;;;;;4.95;2.95;;;;;;;12.36;59.24;97377.47;5030723;28;20045;-73
2022/01/01 10:10:22;;;;;;;4.68;2.95;;;;;;;12.52;58.01;97381.50;5034088;28;20394;-74
2022/01/01 10:12:49;;;;;;;4.70;2.75;;;;;;;12.55;58.42;97378.16;5030976;28;20472;-73
2022/01/01 10:15:16;;;;;;;4.82;2.83;;;;;;;12.76;58.36;97384.00;5030517;28;20523;-73
2022/01/01 10:17:42;;;;;;;5.43;2.97;;;;;;;12.95;58.18;97383.88;5033189;28;20060;-74
2022/01/01 10:20:10;;;;;;;5.50;3.28;;;;;;;12.94;57.33;97383.03;5034660;28;20041;-74
2022/01/01 10:22:39;;;;;;;5.00;3.08;;;;;;;12.88;56.93;97386.19;5034803;28;20049;-74
2022/01/01 10:27:55;;;;;;;5.32;3.15;;;;;;;12.97;57.10;97381.63;5034924;28;20080;-73
2022/01/01 10:30:24;;;;;;;5.55;3.42;;;;;;;13.10;56.57;97375.28;5034491;28;20056;-73
2022/01/01 10:33:09;;;;;;;5.78;3.35;;;;;;;13.08;56.09;97383.00;5034872;28;20057;-74
2022/01/01 10:35:38;;;;;;;5.78;3.53;;;;;;;12.99;55.76;97382.09;5034866;28;20056;-74
2022/01/01 10:38:10;;;;;;;5.72;3.05;;;;;;;12.99;56.72;97379.38;5034248;28;20524;-75
2022/01/01 10:40:37;;;;;;;4.22;2.72;;;;;;;13.16;56.52;97387.75;5038235;28;20053;-74
2022/01/01 10:43:03;;;;;;;5.47;2.97;;;;;;;13.28;56.06;97388.03;5034316;28;20060;-72
2022/01/01 10:45:32;;;;;;;6.30;3.45;;;;;;;13.30;56.61;97380.31;5034477;28;20614;-74
2022/01/01 10:48:23;;;;;;;4.32;3.00;;;;;;;13.29;56.66;97375.97;5034427;28;20045;-74
2022/01/01 10:50:52;;;;;;;5.20;2.80;;;;;;;13.18;56.55;97373.75;5034382;28;20479;-73
2022/01/01 10:53:23;;;;;;;5.75;3.28;;;;;;;13.11;56.70;97368.72;5034070;28;20060;-73
2022/01/01 10:55:53;;;;;;;4.88;3.03;;;;;;;13.04;57.02;97360.13;5034372;28;20049;-74
2022/01/01 10:58:21;;;;;;;6.55;3.30;;;;;;;13.09;57.13;97356.47;5033702;28;20103;-74
2022/01/01 11:00:51;;;;;;;5.30;3.20;;;;;;;13.13;56.79;97355.53;5034214;28;20049;-73
2022/01/01 11:03:19;;;;;;;6.43;3.30;;;;;;;13.11;57.26;97348.78;5033872;28;20053;-74
2022/01/01 11:05:47;;;;;;;5.45;3.00;;;;;;;13.23;56.97;97341.66;5034354;28;20129;-74
2022/01/01 11:08:15;;;;;;;6.40;3.15;;;;;;;13.51;55.67;97346.97;5033669;28;20045;-73
2022/01/01 11:10:44;;;;;;;5.32;2.92;;;;;;;13.76;56.19;97340.84;5037716;28;20049;-73
2022/01/01 11:13:11;;;;;;;4.28;2.88;;;;;;;13.78;54.39;97337.78;5033674;28;20132;-73
2022/01/01 11:15:38;;;;;;;4.75;2.92;;;;;;;13.76;54.48;97332.63;5034127;28;20050;-75
2022/01/01 11:18:04;;;;;;;5.90;3.30;;;;;;;13.67;55.07;97337.25;5033364;28;20486;-73
2022/01/01 11:20:38;;;;;;;5.82;3.20;;;;;;;13.62;56.73;97337.38;5034016;28;20404;-73
2022/01/01 11:23:07;;;;;;;6.22;3.22;;;;;;;13.69;55.49;97331.47;5033593;28;20073;-73
2022/01/01 11:25:34;;;;;;;6.72;3.08;;;;;;;13.94;55.87;97324.47;5033878;28;20053;-73
2022/01/01 11:28:04;;;;;;;4.95;3.00;;;;;;;14.05;53.32;97329.38;5033482;28;20420;-75
2022/01/01 11:30:31;;;;;;;4.68;3.00;;;;;;;14.05;54.68;97331.31;5033364;28;20052;-73
2022/01/01 11:33:04;;;;;;;5.32;3.22;;;;;;;14.13;53.74;97325.06;5033811;28;20439;-74
2022/01/01 11:35:33;;;;;;;5.97;3.13;;;;;;;14.07;53.48;97327.13;5033658;28;20400;-74
2022/01/01 11:38:03;;;;;;;4.60;3.05;;;;;;;13.92;54.53;97330.28;5033549;28;20045;-75
2022/01/01 11:40:40;;;;;;;4.65;3.05;;;;;;;13.91;54.03;97327.88;5037030;28;20042;-73
2022/01/01 11:43:08;;;;;;;6.65;3.03;;;;;;;13.86;54.09;97314.31;5033022;28;20416;-75